createdAt,value
2023-03-11T00:00:17.204Z,5.10
2023-03-11T00:02:45.488Z,2.70
2023-03-11T00:05:22.035Z,7.07
2023-03-11T00:07:49.446Z,3.30
2023-03-11T00:10:19.512Z,5.32
2023-03-11T00:12:46.906Z,2.67
2023-03-11T00:15:14.937Z,3.63
2023-03-11T00:17:42.317Z,3.72
2023-03-11T00:20:15.982Z,2.30
2023-03-11T00:22:43.257Z,2.50
2023-03-11T00:25:11.525Z,3.70
2023-03-11T00:27:38.867Z,6.28
2023-03-11T00:30:06.548Z,3.35
2023-03-11T00:32:34.042Z,4.07
2023-03-11T00:35:02.205Z,1.90
2023-03-11T00:37:29.582Z,7.85
2023-03-11T00:39:58.272Z,4.95
2023-03-11T00:42:25.878Z,5.47
2023-03-11T00:44:53.240Z,6.90
2023-03-11T00:47:20.542Z,4.10
2023-03-11T00:49:47.973Z,4.15
2023-03-11T00:52:15.946Z,4.60
2023-03-11T00:54:43.327Z,3.20
2023-03-11T00:57:10.724Z,5.53
2023-03-11T00:59:38.296Z,5.00
2023-03-11T01:02:05.650Z,3.47
2023-03-11T01:04:33.500Z,5.88
2023-03-11T01:07:01.300Z,8.35
2023-03-11T01:09:28.604Z,3.90
2023-03-11T01:11:55.960Z,4.63
2023-03-11T01:14:23.378Z,3.55
2023-03-11T01:16:50.826Z,3.70
2023-03-11T01:19:18.230Z,4.63
2023-03-11T01:21:45.594Z,2.90
2023-03-11T01:24:12.919Z,3.08
2023-03-11T01:26:40.253Z,3.50
2023-03-11T01:29:07.487Z,3.30
2023-03-11T01:31:34.793Z,5.47
2023-03-11T01:34:02.361Z,4.00
2023-03-11T01:36:29.677Z,3.88
2023-03-11T01:38:57.929Z,2.47
2023-03-11T01:41:25.270Z,6.53
2023-03-11T01:43:54.949Z,4.43
2023-03-11T01:46:25.516Z,7.45
2023-03-11T01:48:56.997Z,4.10
2023-03-11T01:51:36.476Z,2.72
2023-03-11T01:54:06.213Z,3.15
2023-03-11T01:56:33.785Z,3.03
2023-03-11T01:59:01.234Z,4.97
2023-03-11T02:01:28.806Z,3.92
2023-03-11T02:03:57.495Z,4.07
2023-03-11T02:06:25.027Z,2.28
2023-03-11T02:08:53.495Z,3.35
2023-03-11T02:11:24.919Z,2.47
2023-03-11T02:13:53.135Z,4.32
2023-03-11T02:16:20.493Z,4.35
2023-03-11T02:18:47.820Z,3.42
2023-03-11T02:21:23.541Z,3.75
2023-03-11T02:23:54.100Z,4.97
2023-03-11T02:26:25.578Z,4.20
2023-03-11T02:28:54.363Z,4.40
2023-03-11T02:31:22.497Z,5.40
2023-03-11T02:33:51.741Z,2.38
2023-03-11T02:36:37.993Z,3.83
2023-03-11T02:39:06.875Z,4.07
2023-03-11T02:41:38.012Z,6.75
2023-03-11T02:44:08.189Z,4.30
2023-03-11T02:46:36.181Z,3.83
2023-03-11T02:49:04.451Z,3.55
2023-03-11T02:51:33.413Z,4.00
2023-03-11T02:54:04.035Z,5.13
2023-03-11T02:56:32.299Z,6.35
2023-03-11T02:59:00.397Z,3.63
2023-03-11T03:01:29.205Z,3.35
2023-03-11T03:03:56.766Z,2.47
2023-03-11T03:06:25.109Z,2.58
2023-03-11T03:08:53.006Z,4.18
2023-03-11T03:11:20.425Z,5.07
2023-03-11T03:13:49.060Z,4.47
2023-03-11T03:16:16.467Z,3.17
2023-03-11T03:18:43.817Z,5.43
2023-03-11T03:21:11.088Z,3.65
2023-03-11T03:23:38.857Z,3.53
2023-03-11T03:26:06.526Z,7.28
2023-03-11T03:28:37.173Z,4.55
2023-03-11T03:31:05.821Z,5.60
2023-03-11T03:33:33.350Z,3.72
2023-03-11T03:36:01.606Z,5.85
2023-03-11T03:38:36.865Z,3.67
2023-03-11T03:41:04.553Z,4.80
2023-03-11T03:43:32.350Z,3.95
2023-03-11T03:46:01.080Z,6.43
2023-03-11T03:48:32.549Z,5.28
2023-03-11T03:51:05.474Z,5.20
2023-03-11T03:53:34.881Z,5.35
2023-03-11T03:56:09.563Z,3.92
2023-03-11T03:58:37.787Z,6.35
2023-03-11T04:01:06.148Z,6.93
2023-03-11T04:03:35.243Z,8.55
2023-03-11T04:06:11.467Z,7.15
2023-03-11T04:08:40.551Z,11.43
2023-03-11T04:11:09.623Z,9.63
2023-03-11T04:13:37.459Z,5.07
2023-03-11T04:16:06.523Z,6.45
2023-03-11T04:18:34.730Z,2.80
2023-03-11T04:21:05.707Z,4.97
2023-03-11T04:23:33.329Z,6.85
2023-03-11T04:26:01.178Z,7.22
2023-03-11T04:28:28.699Z,5.00
2023-03-11T04:30:56.160Z,6.60
2023-03-11T04:33:23.834Z,4.97
2023-03-11T04:35:51.165Z,8.10
2023-03-11T04:38:19.450Z,3.90
2023-03-11T04:40:46.988Z,5.28
2023-03-11T04:43:14.367Z,4.25
2023-03-11T04:45:44.945Z,4.82
2023-03-11T04:48:13.483Z,5.88
2023-03-11T04:50:41.687Z,6.72
2023-03-11T04:53:09.073Z,6.20
2023-03-11T04:55:37.129Z,4.30
2023-03-11T04:58:04.561Z,4.47
2023-03-11T05:00:33.143Z,5.53
2023-03-11T05:03:05.573Z,5.80
2023-03-11T05:05:33.482Z,5.10
2023-03-11T05:08:01.354Z,2.45
2023-03-11T05:10:31.963Z,6.00
2023-03-11T05:13:02.249Z,2.20
2023-03-11T05:15:33.350Z,6.45
2023-03-11T05:18:02.970Z,8.43
2023-03-11T05:20:33.249Z,4.18
2023-03-11T05:23:00.647Z,4.43
2023-03-11T05:25:31.284Z,5.00
2023-03-11T05:27:59.041Z,5.65
2023-03-11T05:30:26.791Z,6.57
2023-03-11T05:32:56.355Z,4.90
2023-03-11T05:35:24.674Z,8.98
2023-03-11T05:37:53.645Z,3.95
2023-03-11T05:40:22.464Z,5.32
2023-03-11T05:42:50.486Z,3.20
2023-03-11T05:45:17.793Z,2.38
2023-03-11T05:47:47.789Z,4.60
2023-03-11T05:50:16.859Z,4.10
2023-03-11T05:52:46.305Z,4.75
2023-03-11T05:55:13.763Z,4.70
2023-03-11T05:57:44.116Z,5.22
2023-03-11T06:00:12.461Z,4.55
2023-03-11T06:02:46.629Z,3.72
2023-03-11T06:05:17.305Z,6.15
2023-03-11T06:07:46.352Z,5.20
2023-03-11T06:10:14.137Z,4.43
2023-03-11T06:15:28.493Z,6.53
2023-03-11T06:17:56.104Z,8.85
2023-03-11T06:20:23.650Z,4.22
2023-03-11T06:22:51.895Z,5.53
2023-03-11T06:25:22.766Z,4.93
2023-03-11T06:27:51.611Z,7.93
2023-03-11T06:30:20.367Z,5.78
2023-03-11T06:33:15.177Z,7.93
2023-03-11T06:35:43.395Z,8.32
2023-03-11T06:38:10.752Z,5.10
2023-03-11T06:40:38.430Z,5.80
2023-03-11T06:43:05.813Z,4.22
2023-03-11T06:45:37.215Z,8.15
2023-03-11T06:48:04.769Z,6.85
2023-03-11T06:50:33.635Z,9.52
2023-03-11T06:53:06.587Z,8.95
2023-03-11T06:55:35.540Z,6.13
2023-03-11T06:58:03.779Z,6.25
2023-03-11T07:00:33.743Z,7.72
2023-03-11T07:03:02.829Z,7.00
2023-03-11T07:05:30.951Z,9.25
2023-03-11T07:08:02.880Z,6.82
2023-03-11T07:10:30.311Z,6.15
2023-03-11T07:12:57.746Z,6.57
2023-03-11T07:15:25.244Z,6.03
2023-03-11T07:17:52.778Z,10.13
2023-03-11T07:20:20.345Z,10.48
2023-03-11T07:22:47.688Z,7.78
2023-03-11T07:25:15.145Z,12.52
2023-03-11T07:27:42.376Z,9.52
2023-03-11T07:30:10.010Z,9.02
2023-03-11T07:32:37.363Z,8.02
2023-03-11T07:35:04.842Z,9.10
2023-03-11T07:37:32.138Z,8.20
2023-03-11T07:39:59.428Z,8.75
2023-03-11T07:42:26.732Z,8.30
2023-03-11T07:44:55.027Z,8.95
2023-03-11T07:47:22.366Z,8.27
2023-03-11T07:49:49.672Z,5.50
2023-03-11T07:52:16.956Z,6.40
2023-03-11T07:54:45.338Z,9.98
2023-03-11T07:57:17.119Z,3.63
2023-03-11T07:59:44.529Z,10.13
2023-03-11T08:02:11.969Z,10.40
2023-03-11T08:04:39.335Z,6.43
2023-03-11T08:07:06.669Z,6.53
2023-03-11T08:09:35.307Z,5.50
2023-03-11T08:12:02.658Z,6.43
2023-03-11T08:14:29.951Z,6.35
2023-03-11T08:16:57.293Z,5.38
2023-03-11T08:19:24.974Z,5.60
2023-03-11T08:21:52.288Z,5.28
2023-03-11T08:24:19.600Z,11.25
2023-03-11T08:26:46.889Z,4.32
2023-03-11T08:29:14.216Z,6.30
2023-03-11T08:31:41.506Z,8.85
2023-03-11T08:34:10.363Z,7.20
2023-03-11T08:36:37.730Z,8.98
2023-03-11T08:39:05.211Z,6.28
2023-03-11T08:41:32.672Z,10.70
2023-03-11T08:44:00.490Z,4.78
2023-03-11T08:46:29.765Z,7.75
2023-03-11T08:51:27.805Z,5.78
2023-03-11T08:53:55.193Z,6.93
2023-03-11T08:56:22.554Z,5.05
2023-03-11T08:58:50.861Z,2.55
2023-03-11T09:01:18.336Z,6.88
2023-03-11T09:03:45.744Z,2.75
2023-03-11T09:06:15.517Z,4.25
2023-03-11T09:08:43.367Z,8.57
2023-03-11T09:11:13.502Z,9.82
2023-03-11T09:13:41.422Z,7.32
2023-03-11T09:16:28.969Z,3.55
2023-03-11T09:18:56.320Z,5.18
2023-03-11T09:21:23.903Z,5.55
2023-03-11T09:23:51.305Z,6.75
2023-03-11T09:26:18.681Z,3.42
2023-03-11T09:28:50.853Z,6.32
2023-03-11T09:31:18.603Z,4.80
2023-03-11T09:33:46.533Z,4.55
2023-03-11T09:36:14.916Z,3.60
2023-03-11T09:38:42.768Z,4.80
2023-03-11T09:41:19.325Z,2.63
2023-03-11T09:43:52.848Z,4.57
2023-03-11T09:46:42.544Z,8.63
2023-03-11T09:49:16.159Z,2.97
2023-03-11T09:51:47.447Z,4.22
2023-03-11T09:54:14.828Z,4.57
2023-03-11T09:56:44.527Z,4.07
2023-03-11T09:59:18.168Z,11.32
2023-03-11T10:01:47.361Z,3.80
2023-03-11T10:04:35.044Z,2.38
2023-03-11T10:07:03.008Z,4.05
2023-03-11T10:09:50.592Z,4.20
2023-03-11T10:12:26.070Z,4.75
2023-03-11T10:15:09.472Z,4.13
2023-03-11T10:17:55.680Z,5.15
2023-03-11T10:20:39.041Z,5.88
2023-03-11T10:23:21.648Z,3.83
2023-03-11T10:25:51.974Z,2.28
2023-03-11T10:28:19.970Z,5.15
2023-03-11T10:30:53.787Z,4.32
2023-03-11T10:33:25.258Z,4.13
2023-03-11T10:35:54.277Z,3.92
2023-03-11T10:38:24.170Z,4.43
2023-03-11T10:40:52.212Z,3.28
2023-03-11T10:43:19.481Z,4.22
2023-03-11T10:45:48.683Z,8.18
2023-03-11T10:51:02.765Z,6.30
2023-03-11T10:53:30.690Z,5.43
2023-03-11T10:55:59.457Z,6.07
2023-03-11T10:58:28.303Z,4.88
2023-03-11T11:01:03.111Z,6.22
2023-03-11T11:03:31.017Z,4.60
2023-03-11T11:05:59.605Z,5.97
2023-03-11T11:08:27.478Z,5.68
2023-03-11T11:10:56.580Z,3.95
2023-03-11T11:13:35.447Z,3.17
2023-03-11T11:16:04.143Z,2.25
2023-03-11T11:18:43.655Z,3.05
2023-03-11T11:21:15.471Z,5.35
2023-03-11T11:23:45.821Z,7.78
2023-03-11T11:26:18.711Z,6.30
2023-03-11T11:28:46.422Z,3.97
2023-03-11T11:31:26.748Z,5.18
2023-03-11T11:33:57.254Z,3.85
2023-03-11T11:36:28.470Z,6.05
2023-03-11T11:38:56.720Z,5.50
2023-03-11T11:41:25.112Z,4.00
2023-03-11T11:43:56.658Z,6.25
2023-03-11T11:46:30.243Z,3.00
2023-03-11T11:49:04.576Z,2.85
2023-03-11T11:51:31.917Z,4.10
2023-03-11T11:54:02.409Z,5.60
2023-03-11T11:56:30.046Z,3.72
2023-03-11T11:58:57.355Z,5.68
2023-03-11T12:01:24.778Z,3.78
2023-03-11T12:04:13.130Z,3.50
2023-03-11T12:06:55.795Z,4.90
2023-03-11T12:09:29.219Z,4.57
2023-03-11T12:12:13.539Z,6.18
2023-03-11T12:14:44.552Z,4.30
2023-03-11T12:17:13.150Z,5.70
2023-03-11T12:19:54.303Z,4.10
2023-03-11T12:22:36.769Z,4.63
2023-03-11T12:25:22.268Z,7.75
2023-03-11T12:28:09.412Z,5.30
2023-03-11T12:30:39.530Z,6.68
2023-03-11T12:33:11.944Z,5.40
2023-03-11T12:35:39.428Z,4.95
2023-03-11T12:38:21.823Z,6.20
2023-03-11T12:40:55.416Z,5.50
2023-03-11T12:43:30.140Z,3.80
2023-03-11T12:46:01.196Z,7.53
2023-03-11T12:48:28.489Z,3.90
2023-03-11T12:50:56.215Z,3.92
2023-03-11T12:53:43.855Z,6.55
2023-03-11T12:56:11.234Z,3.63
2023-03-11T12:58:52.297Z,3.90
2023-03-11T13:01:29.881Z,2.53
2023-03-11T13:04:04.879Z,4.65
2023-03-11T13:06:56.003Z,6.32
2023-03-11T13:09:25.724Z,3.15
2023-03-11T13:11:53.186Z,3.42
2023-03-11T13:14:35.312Z,3.78
2023-03-11T13:17:24.783Z,5.25
2023-03-11T13:19:56.120Z,3.25
2023-03-11T13:22:43.586Z,3.53
2023-03-11T13:25:33.810Z,5.63
2023-03-11T13:28:08.150Z,3.20
2023-03-11T13:30:39.379Z,2.38
2023-03-11T13:33:07.238Z,4.13
2023-03-11T13:35:53.530Z,5.88
2023-03-11T13:38:39.761Z,4.60
2023-03-11T13:41:28.724Z,4.57
2023-03-11T13:43:58.263Z,5.68
2023-03-11T13:46:31.550Z,3.60
2023-03-11T13:49:05.707Z,3.95
2023-03-11T13:51:44.140Z,3.65
2023-03-11T13:54:11.449Z,3.92
2023-03-11T13:56:44.100Z,3.92
2023-03-11T13:59:28.742Z,4.20
2023-03-11T14:02:15.290Z,3.35
2023-03-11T14:04:45.439Z,2.88
2023-03-11T14:07:14.361Z,5.57
2023-03-11T14:09:41.786Z,2.72
2023-03-11T14:12:09.498Z,4.38
2023-03-11T14:14:47.815Z,2.63
2023-03-11T14:17:18.601Z,3.58
2023-03-11T14:20:04.657Z,3.38
2023-03-11T14:22:32.472Z,3.00
2023-03-11T14:25:01.484Z,1.50
2023-03-11T14:27:28.834Z,3.08
2023-03-11T14:29:56.292Z,2.92
2023-03-11T14:32:28.820Z,5.20
2023-03-11T14:34:56.584Z,1.10
2023-03-11T14:37:26.658Z,4.07
2023-03-11T14:39:54.333Z,1.90
2023-03-11T14:42:29.932Z,3.08
2023-03-11T14:45:05.253Z,2.33
2023-03-11T14:47:53.058Z,3.35
2023-03-11T14:50:21.926Z,4.85
2023-03-11T14:52:51.687Z,7.22
2023-03-11T14:55:35.112Z,3.67
2023-03-11T14:58:02.470Z,3.25
2023-03-11T15:00:32.172Z,8.13
2023-03-11T15:02:59.641Z,5.90
2023-03-11T15:05:41.432Z,11.82
2023-03-11T15:08:08.912Z,15.45
2023-03-11T15:10:37.042Z,9.40
2023-03-11T15:13:06.170Z,4.55
2023-03-11T15:15:33.522Z,4.88
2023-03-11T15:18:01.475Z,5.18
2023-03-11T15:20:31.978Z,5.97
2023-03-11T15:23:03.619Z,2.88
2023-03-11T15:25:33.379Z,3.47
2023-03-11T15:28:01.439Z,4.13
2023-03-11T15:30:30.921Z,4.85
2023-03-11T15:32:58.958Z,2.83
2023-03-11T15:35:27.772Z,5.57
2023-03-11T15:38:13.808Z,7.90
2023-03-11T15:40:51.199Z,4.25
2023-03-11T15:43:18.502Z,3.97
2023-03-11T15:45:45.935Z,3.08
2023-03-11T15:48:16.456Z,4.13
2023-03-11T15:50:54.947Z,5.20
2023-03-11T15:53:23.655Z,6.05
2023-03-11T15:55:51.120Z,7.72
2023-03-11T15:58:19.611Z,4.35
2023-03-11T16:00:51.139Z,3.83
2023-03-11T16:03:19.077Z,6.82
2023-03-11T16:05:46.991Z,2.30
2023-03-11T16:08:14.873Z,3.38
2023-03-11T16:10:42.604Z,2.97
2023-03-11T16:13:13.255Z,3.78
2023-03-11T16:15:42.213Z,6.15
2023-03-11T16:18:10.624Z,3.17
2023-03-11T16:20:45.620Z,3.30
2023-03-11T16:23:20.214Z,5.28
2023-03-11T16:25:48.138Z,4.45
2023-03-11T16:28:15.991Z,3.28
2023-03-11T16:30:43.599Z,1.88
2023-03-11T16:33:11.146Z,5.82
2023-03-11T16:35:38.782Z,4.45
2023-03-11T16:38:07.507Z,2.72
2023-03-11T16:40:35.148Z,16.40
2023-03-11T16:43:07.475Z,4.95
2023-03-11T16:45:35.224Z,4.55
2023-03-11T16:48:03.047Z,3.63
2023-03-11T16:50:30.432Z,2.25
2023-03-11T16:52:58.760Z,3.33
2023-03-11T16:55:26.870Z,2.78
2023-03-11T16:57:55.969Z,6.10
2023-03-11T17:00:24.400Z,11.35
2023-03-11T17:02:51.995Z,10.57
2023-03-11T17:05:19.576Z,41.08
2023-03-11T17:07:46.920Z,33.85
2023-03-11T17:10:14.593Z,59.17
2023-03-11T17:12:41.949Z,54.33
2023-03-11T17:15:09.761Z,31.42
2023-03-11T17:17:37.617Z,15.32
2023-03-11T17:20:07.012Z,6.13
2023-03-11T17:22:34.570Z,10.88
2023-03-11T17:25:02.894Z,5.13
2023-03-11T17:27:32.593Z,6.22
2023-03-11T17:30:00.664Z,5.50
2023-03-11T17:32:29.224Z,5.57
2023-03-11T17:34:56.983Z,4.35
2023-03-11T17:37:25.444Z,4.38
2023-03-11T17:39:53.082Z,4.75
2023-03-11T17:42:20.516Z,3.95
2023-03-11T17:44:51.658Z,4.82
2023-03-11T17:47:20.058Z,4.53
2023-03-11T17:49:47.895Z,5.57
2023-03-11T17:52:15.229Z,4.47
2023-03-11T17:54:42.774Z,6.88
2023-03-11T17:57:10.111Z,7.75
2023-03-11T17:59:37.633Z,7.40
2023-03-11T18:02:05.105Z,8.18
2023-03-11T18:04:32.686Z,7.43
2023-03-11T18:07:00.233Z,6.18
2023-03-11T18:09:27.914Z,5.20
2023-03-11T18:11:55.271Z,10.30
2023-03-11T18:14:22.855Z,10.25
2023-03-11T18:16:50.128Z,6.15
2023-03-11T18:19:17.480Z,5.82
2023-03-11T18:21:45.437Z,6.97
2023-03-11T18:24:13.049Z,6.40
2023-03-11T18:26:40.403Z,10.02
2023-03-11T18:29:07.921Z,4.10
2023-03-11T18:31:35.246Z,4.50
2023-03-11T18:34:03.547Z,5.05
2023-03-11T18:36:32.481Z,7.40
2023-03-11T18:39:00.635Z,7.70
2023-03-11T18:41:28.965Z,11.48
2023-03-11T18:43:59.783Z,9.70
2023-03-11T18:46:33.615Z,5.90
2023-03-11T18:49:02.179Z,9.15
2023-03-11T18:51:30.370Z,7.55
2023-03-11T18:53:58.047Z,6.00
2023-03-11T18:56:25.476Z,4.05
2023-03-11T18:58:52.866Z,8.93
2023-03-11T19:01:21.227Z,7.70
2023-03-11T19:03:52.974Z,5.77
2023-03-11T19:06:20.779Z,8.57
2023-03-11T19:08:48.073Z,4.82
2023-03-11T19:11:16.525Z,5.18
2023-03-11T19:13:47.867Z,6.63
2023-03-11T19:16:17.355Z,5.63
2023-03-11T19:21:13.318Z,5.97
2023-03-11T19:23:40.940Z,10.32
2023-03-11T19:26:08.582Z,7.85
2023-03-11T19:28:36.264Z,12.40
2023-03-11T19:31:04.231Z,11.65
2023-03-11T19:33:31.789Z,9.88
2023-03-11T19:36:00.340Z,16.65
2023-03-11T19:38:28.454Z,12.18
2023-03-11T19:41:01.567Z,12.40
2023-03-11T19:43:29.575Z,12.35
2023-03-11T19:45:57.091Z,19.73
2023-03-11T19:48:24.641Z,14.50
2023-03-11T19:50:52.393Z,20.20
2023-03-11T19:53:20.674Z,19.83
2023-03-11T19:55:48.932Z,13.83
2023-03-11T19:58:16.363Z,27.58
2023-03-11T20:00:44.816Z,16.30
2023-03-11T20:03:13.332Z,12.30
2023-03-11T20:05:41.748Z,15.67
2023-03-11T20:08:10.056Z,13.20
2023-03-11T20:10:41.581Z,15.52
2023-03-11T20:13:09.455Z,16.48
2023-03-11T20:15:37.231Z,12.55
2023-03-11T20:18:05.617Z,13.23
2023-03-11T20:20:33.332Z,16.93
2023-03-11T20:23:01.916Z,15.75
2023-03-11T20:25:32.464Z,17.75
2023-03-11T20:28:00.611Z,17.13
2023-03-11T20:30:27.990Z,14.68
2023-03-11T20:32:55.907Z,15.98
2023-03-11T20:35:23.557Z,12.50
2023-03-11T20:37:50.943Z,12.95
2023-03-11T20:40:19.369Z,11.65
2023-03-11T20:42:47.275Z,14.33
2023-03-11T20:45:22.070Z,10.18
2023-03-11T20:47:50.361Z,11.57
2023-03-11T20:50:18.140Z,12.23
2023-03-11T20:52:45.896Z,12.98
2023-03-11T20:55:13.658Z,12.38
2023-03-11T20:57:41.185Z,11.32
2023-03-11T21:00:11.661Z,14.20
2023-03-11T21:02:39.645Z,11.57
2023-03-11T21:05:07.751Z,13.52
2023-03-11T21:07:35.331Z,17.48
2023-03-11T21:10:03.803Z,10.30
2023-03-11T21:12:31.470Z,9.75
2023-03-11T21:14:59.534Z,13.50
2023-03-11T21:17:27.302Z,15.45
2023-03-11T21:19:54.690Z,16.50
2023-03-11T21:22:22.430Z,13.32
2023-03-11T21:24:54.105Z,12.63
2023-03-11T21:27:26.590Z,14.77
2023-03-11T21:29:54.973Z,16.77
2023-03-11T21:32:23.047Z,10.80
2023-03-11T21:34:50.740Z,12.18
2023-03-11T21:37:18.063Z,15.32
2023-03-11T21:39:45.859Z,14.27
2023-03-11T21:42:14.281Z,8.40
2023-03-11T21:44:42.276Z,14.00
2023-03-11T21:47:10.606Z,8.90
2023-03-11T21:49:38.729Z,8.10
2023-03-11T21:52:07.291Z,10.18
2023-03-11T21:54:35.039Z,7.75
2023-03-11T21:57:02.821Z,8.75
2023-03-11T21:59:31.476Z,10.68
2023-03-11T22:02:03.155Z,12.13
2023-03-11T22:04:31.618Z,11.93
2023-03-11T22:06:59.216Z,8.07
2023-03-11T22:09:26.807Z,9.88
2023-03-11T22:11:56.208Z,9.00
2023-03-11T22:14:24.212Z,9.40
2023-03-11T22:16:52.385Z,10.63
2023-03-11T22:19:20.111Z,9.48
2023-03-11T22:21:49.005Z,8.13
2023-03-11T22:24:16.909Z,11.55
2023-03-11T22:26:44.241Z,8.55
2023-03-11T22:29:13.511Z,11.60
2023-03-11T22:31:41.198Z,18.17
2023-03-11T22:34:08.832Z,11.43
2023-03-11T22:36:36.201Z,11.45
2023-03-11T22:39:04.641Z,11.77
2023-03-11T22:41:32.026Z,9.98
2023-03-11T22:43:59.737Z,11.10
2023-03-11T22:46:27.427Z,15.07
2023-03-11T22:48:54.836Z,12.90
2023-03-11T22:51:22.546Z,9.93
2023-03-11T22:53:50.134Z,10.77
2023-03-11T22:56:18.166Z,9.05
2023-03-11T22:58:46.025Z,10.40
2023-03-11T23:01:13.493Z,11.57
2023-03-11T23:03:40.996Z,13.73
2023-03-11T23:06:09.894Z,12.98
2023-03-11T23:08:38.038Z,10.40
2023-03-11T23:11:06.543Z,13.88
2023-03-11T23:13:35.886Z,14.45
2023-03-11T23:16:07.559Z,12.60
2023-03-11T23:18:35.275Z,13.15
2023-03-11T23:21:02.638Z,13.10
2023-03-11T23:23:30.258Z,13.05
2023-03-11T23:25:58.680Z,11.48
2023-03-11T23:28:25.968Z,13.07
2023-03-11T23:30:53.716Z,15.57
2023-03-11T23:33:21.130Z,11.73
2023-03-11T23:35:48.694Z,10.40
2023-03-11T23:38:16.251Z,10.63
2023-03-11T23:40:43.603Z,10.13
2023-03-11T23:43:10.894Z,11.50
2023-03-11T23:45:38.170Z,10.20
2023-03-11T23:48:05.529Z,12.50
2023-03-11T23:50:32.748Z,11.35
2023-03-11T23:53:00.035Z,10.48
2023-03-11T23:55:27.390Z,13.23
2023-03-11T23:57:54.784Z,10.73
